Time;durP1;ratioP1;P1;durP2;ratioP2;P2;SDS_P1;SDS_P2;PMS_P1;PMS_P2;Temp;Humidity;BMP_temperature;BMP_pressure;BME280_temperature;BME280_humidity;BME280_pressure;Samples;Min_cycle;Max_cycle;Signal;HPM_P1;HPM_P2
2022/11/27 00:02:40;;;;;;;14.93;7.20;;;;;;;;;;8348640;28;20429;-62
2022/11/27 00:06:41;;;;;;;12.15;6.95;;;;;;;;;;8349817;28;20108;-62
2022/11/27 00:10:41;;;;;;;20.83;8.02;;;;;;;;;;8348013;28;20483;-63
2022/11/27 00:14:41;;;;;;;18.55;8.95;;;;;;;;;;8348755;28;20033;-63
2022/11/27 00:18:42;;;;;;;14.85;8.07;;;;;;;;;;8347132;28;20088;-63
2022/11/27 00:22:42;;;;;;;14.45;7.72;;;;;;;;;;8352560;28;20044;-63
2022/11/27 00:26:42;;;;;;;17.02;8.23;;;;;;;;;;8354926;28;20024;-62
2022/11/27 00:30:42;;;;;;;16.40;8.35;;;;;;;;;;8354356;28;20105;-64
2022/11/27 00:34:42;;;;;;;17.58;8.95;;;;;;;;;;8352719;28;20104;-63
2022/11/27 00:38:43;;;;;;;19.20;8.50;;;;;;;;;;8354806;28;20031;-63
2022/11/27 00:42:43;;;;;;;19.30;7.85;;;;;;;;;;8355995;28;20021;-63
2022/11/27 00:46:43;;;;;;;12.15;6.88;;;;;;;;;;8353240;28;20025;-63
2022/11/27 00:50:44;;;;;;;16.17;7.28;;;;;;;;;;8353442;28;20039;-63
2022/11/27 00:54:44;;;;;;;17.27;7.82;;;;;;;;;;8354079;28;20035;-63
2022/11/27 00:58:44;;;;;;;18.98;7.68;;;;;;;;;;8357052;28;20024;-63
2022/11/27 01:02:45;;;;;;;18.25;7.75;;;;;;;;;;8355040;28;20096;-63
2022/11/27 01:06:45;;;;;;;11.55;6.60;;;;;;;;;;8353160;28;20111;-64
2022/11/27 01:10:48;;;;;;;14.45;6.20;;;;;;;;;;8332953;28;20035;-63
2022/11/27 01:14:48;;;;;;;12.82;6.68;;;;;;;;;;8351754;28;20040;-62
2022/11/27 01:18:50;;;;;;;12.30;5.82;;;;;;;;;;8353281;28;20367;-63
2022/11/27 01:22:50;;;;;;;13.90;5.97;;;;;;;;;;8353706;28;20270;-63
2022/11/27 01:26:50;;;;;;;14.70;6.80;;;;;;;;;;8354975;28;20029;-63
2022/11/27 01:30:51;;;;;;;19.52;6.32;;;;;;;;;;8352629;28;20044;-63
2022/11/27 01:34:51;;;;;;;12.88;6.10;;;;;;;;;;8356064;28;20020;-63
2022/11/27 01:38:51;;;;;;;12.93;6.53;;;;;;;;;;8354616;28;20029;-63
2022/11/27 01:42:52;;;;;;;15.23;6.38;;;;;;;;;;8353929;28;20566;-63
2022/11/27 01:46:53;;;;;;;15.93;6.83;;;;;;;;;;8354290;28;20028;-63
2022/11/27 01:50:54;;;;;;;15.18;7.30;;;;;;;;;;8353250;28;20273;-63
2022/11/27 01:55:04;;;;;;;17.10;8.32;;;;;;;;;;8354246;28;20032;-63
2022/11/27 01:59:04;;;;;;;11.27;6.93;;;;;;;;;;8352610;28;20087;-63
2022/11/27 02:03:05;;;;;;;18.73;8.60;;;;;;;;;;8355422;28;20090;-63
2022/11/27 02:07:05;;;;;;;15.32;7.95;;;;;;;;;;8355403;28;20024;-62
2022/11/27 02:11:12;;;;;;;11.27;7.27;;;;;;;;;;8354799;28;20042;-63
2022/11/27 02:15:12;;;;;;;14.20;7.00;;;;;;;;;;8353977;28;20286;-63
2022/11/27 02:19:15;;;;;;;13.53;6.53;;;;;;;;;;8355273;28;20102;-63
2022/11/27 02:23:30;;;;;;;11.02;6.85;;;;;;;;;;8352178;28;20278;-63
2022/11/27 02:27:36;;;;;;;16.23;7.18;;;;;;;;;;8360234;28;20025;-63
2022/11/27 02:31:50;;;;;;;14.40;7.07;;;;;;;;;;8358900;28;20033;-63
2022/11/27 02:35:57;;;;;;;17.83;9.73;;;;;;;;;;8357479;28;20402;-63
2022/11/27 02:40:03;;;;;;;18.98;9.73;;;;;;;;;;8362717;28;20028;-63
2022/11/27 02:44:04;;;;;;;14.60;8.50;;;;;;;;;;8358730;28;20672;-63
2022/11/27 02:48:05;;;;;;;16.92;8.55;;;;;;;;;;8358470;28;20101;-63
2022/11/27 02:52:06;;;;;;;17.23;8.10;;;;;;;;;;8360788;28;20528;-63
2022/11/27 02:56:09;;;;;;;19.10;9.75;;;;;;;;;;8360335;28;20139;-63
2022/11/27 03:00:10;;;;;;;20.25;9.05;;;;;;;;;;8358380;28;20474;-63
2022/11/27 03:04:13;;;;;;;16.50;9.35;;;;;;;;;;8357614;28;20571;-63
2022/11/27 03:08:21;;;;;;;24.13;10.63;;;;;;;;;;8360986;28;20058;-63
2022/11/27 03:12:21;;;;;;;18.15;11.45;;;;;;;;;;8361114;28;20580;-64
2022/11/27 03:16:34;;;;;;;21.70;12.45;;;;;;;;;;8356473;28;20835;-63
2022/11/27 03:20:39;;;;;;;18.88;10.77;;;;;;;;;;8358080;28;20342;-64
2022/11/27 03:24:39;;;;;;;19.73;11.50;;;;;;;;;;8359079;28;20035;-63
2022/11/27 03:28:42;;;;;;;35.95;12.07;;;;;;;;;;8357868;28;20028;-63
2022/11/27 03:32:42;;;;;;;19.35;10.82;;;;;;;;;;8356027;28;20503;-63
2022/11/27 03:36:43;;;;;;;21.55;10.65;;;;;;;;;;8357340;28;20143;-63
2022/11/27 03:40:50;;;;;;;21.25;11.90;;;;;;;;;;8358450;28;20144;-63
2022/11/27 03:44:53;;;;;;;26.13;12.27;;;;;;;;;;8355348;28;20028;-63
2022/11/27 03:49:07;;;;;;;33.72;15.68;;;;;;;;;;8355202;28;20539;-63
2022/11/27 03:53:15;;;;;;;29.95;14.15;;;;;;;;;;8356798;28;20850;-63
2022/11/27 03:57:20;;;;;;;69.10;15.43;;;;;;;;;;8353808;28;20028;-62
2022/11/27 04:01:22;;;;;;;50.72;14.20;;;;;;;;;;8358590;28;20127;-62
2022/11/27 04:05:22;;;;;;;25.20;14.50;;;;;;;;;;8357863;28;20051;-63
2022/11/27 04:09:24;;;;;;;23.02;12.93;;;;;;;;;;8357445;28;20116;-63
2022/11/27 04:13:24;;;;;;;21.80;12.65;;;;;;;;;;8357236;28;20036;-63
2022/11/27 04:17:25;;;;;;;37.53;14.00;;;;;;;;;;8356237;28;20047;-63
2022/11/27 04:21:25;;;;;;;31.75;15.18;;;;;;;;;;8338847;28;20082;-63
2022/11/27 04:25:25;;;;;;;26.75;15.18;;;;;;;;;;8355103;28;20538;-62
2022/11/27 04:29:25;;;;;;;24.13;13.77;;;;;;;;;;8356178;28;20028;-63
2022/11/27 04:33:26;;;;;;;25.02;13.60;;;;;;;;;;8356378;28;20704;-63
2022/11/27 04:37:26;;;;;;;20.27;13.40;;;;;;;;;;8355495;28;20081;-63
2022/11/27 04:41:28;;;;;;;22.40;12.48;;;;;;;;;;8357142;28;20818;-63
2022/11/27 04:45:28;;;;;;;23.92;13.52;;;;;;;;;;8356464;28;20670;-62
2022/11/27 04:49:28;;;;;;;23.17;12.43;;;;;;;;;;8354626;28;20041;-63
2022/11/27 04:53:28;;;;;;;20.13;11.57;;;;;;;;;;8357231;28;20134;-63
2022/11/27 04:57:28;;;;;;;28.23;13.68;;;;;;;;;;8356042;28;20028;-63
2022/11/27 05:01:29;;;;;;;23.30;12.73;;;;;;;;;;8355376;28;20059;-63
2022/11/27 05:05:29;;;;;;;25.33;12.52;;;;;;;;;;8357379;28;20032;-64
2022/11/27 05:09:29;;;;;;;15.73;12.43;;;;;;;;;;8354032;28;20032;-63
2022/11/27 05:13:30;;;;;;;47.20;14.68;;;;;;;;;;8357962;28;20468;-63
2022/11/27 05:17:31;;;;;;;97.78;14.95;;;;;;;;;;8356476;28;20040;-63
2022/11/27 05:21:31;;;;;;;140.63;15.82;;;;;;;;;;8354112;28;20052;-63
2022/11/27 05:25:31;;;;;;;72.72;14.20;;;;;;;;;;8354077;28;20509;-63
2022/11/27 05:29:31;;;;;;;43.78;13.60;;;;;;;;;;8355569;28;20028;-63
2022/11/27 05:33:32;;;;;;;67.45;13.85;;;;;;;;;;8352409;28;20037;-63
2022/11/27 05:37:32;;;;;;;56.65;12.75;;;;;;;;;;8355674;28;20024;-62
2022/11/27 05:41:33;;;;;;;97.63;13.38;;;;;;;;;;8356741;28;20028;-63
2022/11/27 05:45:33;;;;;;;38.50;12.75;;;;;;;;;;8354924;28;20507;-62
2022/11/27 05:49:34;;;;;;;29.60;12.57;;;;;;;;;;8355625;28;20024;-63
2022/11/27 05:53:34;;;;;;;208.70;16.42;;;;;;;;;;8356724;28;20552;-63
2022/11/27 05:57:34;;;;;;;161.75;15.13;;;;;;;;;;8354883;28;20034;-63
2022/11/27 06:01:34;;;;;;;164.63;14.38;;;;;;;;;;8358257;28;20190;-63
2022/11/27 06:05:38;;;;;;;300.65;19.35;;;;;;;;;;8359611;28;20405;-62
2022/11/27 06:09:38;;;;;;;344.92;18.95;;;;;;;;;;8363304;28;20025;-62
2022/11/27 06:13:39;;;;;;;408.25;20.80;;;;;;;;;;8361573;28;20055;-63
2022/11/27 06:17:39;;;;;;;192.43;15.32;;;;;;;;;;8361418;28;20036;-62
2022/11/27 06:21:39;;;;;;;393.30;17.33;;;;;;;;;;8360564;28;20103;-62
2022/11/27 06:25:39;;;;;;;456.00;20.23;;;;;;;;;;8361378;28;20492;-62
2022/11/27 06:29:40;;;;;;;461.03;19.57;;;;;;;;;;8355337;28;20674;-62
2022/11/27 06:33:40;;;;;;;685.33;26.00;;;;;;;;;;8359860;28;20274;-63
2022/11/27 06:37:40;;;;;;;338.58;16.77;;;;;;;;;;8361256;28;20046;-63
2022/11/27 06:41:42;;;;;;;195.13;13.63;;;;;;;;;;8364152;28;20021;-63
2022/11/27 06:45:42;;;;;;;713.13;25.95;;;;;;;;;;8359913;28;20029;-63
2022/11/27 06:49:42;;;;;;;705.35;25.90;;;;;;;;;;8359470;28;20051;-62
2022/11/27 06:53:43;;;;;;;304.58;15.27;;;;;;;;;;8360762;28;20103;-63
2022/11/27 06:57:43;;;;;;;365.52;16.00;;;;;;;;;;8358840;28;20052;-62
2022/11/27 07:01:43;;;;;;;322.07;15.93;;;;;;;;;;8359812;28;20032;-63
2022/11/27 07:05:44;;;;;;;144.55;11.52;;;;;;;;;;8357976;28;20370;-62
2022/11/27 07:09:44;;;;;;;391.55;16.60;;;;;;;;;;8358849;28;20025;-62
2022/11/27 07:13:45;;;;;;;478.80;18.47;;;;;;;;;;8358089;28;20020;-63
2022/11/27 07:17:45;;;;;;;517.00;20.27;;;;;;;;;;8360126;28;20328;-63
2022/11/27 07:21:45;;;;;;;459.38;18.23;;;;;;;;;;8339776;28;20143;-62
2022/11/27 07:25:45;;;;;;;614.53;21.38;;;;;;;;;;8357564;28;20397;-63
2022/11/27 07:29:46;;;;;;;415.77;17.30;;;;;;;;;;8358868;28;20723;-62
2022/11/27 07:33:46;;;;;;;578.25;22.33;;;;;;;;;;8339265;28;21044;-63
2022/11/27 07:37:46;;;;;;;781.30;25.05;;;;;;;;;;8358496;28;20070;-63
2022/11/27 07:41:47;;;;;;;464.45;17.10;;;;;;;;;;8357775;28;20027;-63
2022/11/27 07:45:47;;;;;;;329.80;14.35;;;;;;;;;;8354699;28;20044;-63
2022/11/27 07:49:48;;;;;;;181.43;10.27;;;;;;;;;;8358274;28;20050;-62
2022/11/27 07:53:50;;;;;;;151.43;12.52;;;;;;;;;;8355411;28;20274;-63
2022/11/27 07:57:50;;;;;;;466.27;16.58;;;;;;;;;;8355053;28;20033;-62
2022/11/27 08:01:51;;;;;;;518.08;17.75;;;;;;;;;;8354800;28;20047;-63
2022/11/27 08:05:51;;;;;;;401.15;16.20;;;;;;;;;;8354955;28;20043;-63
2022/11/27 08:09:51;;;;;;;278.38;14.98;;;;;;;;;;8356539;28;20473;-62
2022/11/27 08:13:56;;;;;;;589.30;21.67;;;;;;;;;;8355872;28;20037;-63
2022/11/27 08:17:56;;;;;;;699.10;23.35;;;;;;;;;;8352858;28;20037;-63
2022/11/27 08:21:57;;;;;;;582.35;19.38;;;;;;;;;;8345724;28;20112;-63
2022/11/27 08:25:57;;;;;;;461.13;16.80;;;;;;;;;;8352710;28;20024;-63
2022/11/27 08:29:58;;;;;;;336.23;14.80;;;;;;;;;;8354128;28;20446;-63
2022/11/27 08:33:58;;;;;;;176.75;14.52;;;;;;;;;;8353696;28;20433;-64
2022/11/27 08:37:59;;;;;;;209.53;14.23;;;;;;;;;;8355552;28;20029;-63
2022/11/27 08:41:59;;;;;;;133.55;13.70;;;;;;;;;;8353770;28;20278;-63
2022/11/27 08:46:02;;;;;;;195.90;15.88;;;;;;;;;;8353642;28;20493;-63
2022/11/27 08:50:02;;;;;;;259.48;15.52;;;;;;;;;;8354146;28;20579;-63
2022/11/27 08:54:02;;;;;;;68.65;12.90;;;;;;;;;;8353819;28;20024;-62
2022/11/27 08:58:03;;;;;;;240.93;19.33;;;;;;;;;;8352694;28;20020;-63
2022/11/27 09:02:03;;;;;;;234.20;25.15;;;;;;;;;;8350887;28;21103;-64
2022/11/27 09:06:10;;;;;;;60.92;15.63;;;;;;;;;;8355341;28;20028;-63
2022/11/27 09:10:11;;;;;;;23.88;11.98;;;;;;;;;;8356304;28;20020;-64
2022/11/27 09:14:11;;;;;;;39.53;9.70;;;;;;;;;;8351091;28;20031;-63
2022/11/27 09:18:11;;;;;;;44.43;10.10;;;;;;;;;;8352585;28;20323;-63
2022/11/27 09:22:11;;;;;;;36.50;8.98;;;;;;;;;;8354095;28;20274;-67
2022/11/27 09:26:13;;;;;;;14.02;9.10;;;;;;;;;;8356135;28;20036;-63
2022/11/27 09:30:13;;;;;;;31.92;9.50;;;;;;;;;;8352959;28;20028;-63
2022/11/27 09:34:13;;;;;;;17.10;13.07;;;;;;;;;;8354895;28;20025;-64
2022/11/27 09:38:13;;;;;;;13.85;9.95;;;;;;;;;;8362578;28;20024;-63
2022/11/27 09:42:30;;;;;;;14.25;9.10;;;;;;;;;;8362066;28;20470;-63
2022/11/27 09:46:33;;;;;;;10.18;8.10;;;;;;;;;;8359340;28;20599;-63
2022/11/27 09:50:35;;;;;;;11.30;8.68;;;;;;;;;;8356959;28;20287;-64
2022/11/27 09:54:41;;;;;;;11.10;8.23;;;;;;;;;;8358017;28;20032;-63
2022/11/27 09:58:58;;;;;;;10.15;7.15;;;;;;;;;;8360280;28;20119;-63
2022/11/27 10:02:58;;;;;;;8.95;7.53;;;;;;;;;;8360764;28;20028;-63
2022/11/27 10:07:04;;;;;;;12.60;7.75;;;;;;;;;;8340210;28;20055;-63
2022/11/27 10:11:25;;;;;;;10.38;7.93;;;;;;;;;;8358332;28;20021;-63
2022/11/27 10:15:45;;;;;;;9.80;8.70;;;;;;;;;;8360282;28;20044;-63
2022/11/27 10:19:45;;;;;;;11.32;8.15;;;;;;;;;;8357232;28;20131;-63
2022/11/27 10:24:00;;;;;;;12.30;8.80;;;;;;;;;;8359773;28;20016;-63
2022/11/27 10:28:19;;;;;;;24.80;13.32;;;;;;;;;;8338957;28;20434;-63
2022/11/27 10:32:25;;;;;;;24.67;13.73;;;;;;;;;;8356184;28;20039;-63
2022/11/27 10:36:32;;;;;;;12.95;9.63;;;;;;;;;;8338802;28;20020;-63
2022/11/27 10:40:37;;;;;;;11.27;8.25;;;;;;;;;;8361409;28;20387;-63
2022/11/27 10:44:40;;;;;;;10.02;7.50;;;;;;;;;;8358057;28;20360;-63
2022/11/27 10:48:40;;;;;;;9.93;7.70;;;;;;;;;;8358194;28;20036;-63
2022/11/27 10:53:01;;;;;;;11.73;9.02;;;;;;;;;;8359482;28;20127;-63
2022/11/27 10:57:08;;;;;;;20.85;12.85;;;;;;;;;;8357790;28;20035;-63
2022/11/27 11:01:09;;;;;;;13.75;8.27;;;;;;;;;;8355901;28;20496;-63
2022/11/27 11:05:09;;;;;;;11.68;8.68;;;;;;;;;;8356906;28;20599;-63
2022/11/27 11:09:17;;;;;;;11.98;8.57;;;;;;;;;;8354408;28;20720;-62
2022/11/27 11:13:19;;;;;;;11.98;8.68;;;;;;;;;;8358414;28;20127;-63
2022/11/27 11:17:26;;;;;;;10.02;7.72;;;;;;;;;;8358930;28;20397;-63
2022/11/27 11:21:40;;;;;;;8.25;6.88;;;;;;;;;;8338709;28;20043;-63
2022/11/27 11:25:47;;;;;;;12.80;7.72;;;;;;;;;;8356577;28;20021;-64
2022/11/27 11:29:51;;;;;;;13.02;8.52;;;;;;;;;;8355856;28;20385;-63
2022/11/27 11:33:55;;;;;;;28.77;11.95;;;;;;;;;;8355289;28;20430;-63
2022/11/27 11:37:56;;;;;;;10.70;7.72;;;;;;;;;;8356227;28;20028;-63
2022/11/27 11:41:56;;;;;;;13.25;8.48;;;;;;;;;;8356543;28;20111;-63
2022/11/27 11:46:16;;;;;;;8.27;6.15;;;;;;;;;;8338249;28;20056;-64
2022/11/27 11:50:23;;;;;;;8.80;5.93;;;;;;;;;;8355049;28;20040;-63
2022/11/27 11:54:31;;;;;;;9.32;5.57;;;;;;;;;;8357565;28;20025;-63
2022/11/27 11:58:50;;;;;;;9.30;5.88;;;;;;;;;;8355259;28;20020;-63
2022/11/27 12:03:09;;;;;;;6.25;4.80;;;;;;;;;;8354725;28;20491;-63
2022/11/27 12:07:15;;;;;;;6.85;4.78;;;;;;;;;;8335276;28;20933;-63
2022/11/27 12:11:17;;;;;;;9.57;5.97;;;;;;;;;;8356593;28;20730;-64
2022/11/27 12:15:23;;;;;;;10.80;7.75;;;;;;;;;;8353914;28;20062;-62
2022/11/27 12:19:47;;;;;;;7.65;5.35;;;;;;;;;;8353077;28;20024;-63
2022/11/27 12:23:56;;;;;;;8.50;6.55;;;;;;;;;;8344106;28;20101;-63
2022/11/27 12:28:17;;;;;;;9.30;6.30;;;;;;;;;;8351996;28;20043;-63
2022/11/27 12:32:38;;;;;;;9.10;5.90;;;;;;;;;;8355118;28;20946;-64
2022/11/27 12:36:47;;;;;;;10.43;6.50;;;;;;;;;;8353990;28;20068;-63
2022/11/27 12:41:06;;;;;;;7.40;5.47;;;;;;;;;;8352902;28;20024;-63
2022/11/27 12:45:21;;;;;;;9.40;5.40;;;;;;;;;;8354374;28;20144;-63
2022/11/27 12:49:28;;;;;;;10.68;6.10;;;;;;;;;;8356910;28;20024;-63
2022/11/27 12:53:38;;;;;;;12.02;6.28;;;;;;;;;;8352423;28;20040;-63
2022/11/27 12:57:39;;;;;;;9.43;6.35;;;;;;;;;;8352312;28;20059;-63
2022/11/27 13:01:46;;;;;;;11.00;6.50;;;;;;;;;;8355254;28;20029;-64
2022/11/27 13:05:50;;;;;;;11.32;6.80;;;;;;;;;;8354287;28;20485;-64
2022/11/27 13:09:57;;;;;;;10.88;6.68;;;;;;;;;;8353295;28;20056;-64
2022/11/27 13:14:02;;;;;;;9.65;7.10;;;;;;;;;;8351494;28;20036;-63
2022/11/27 13:18:09;;;;;;;8.02;5.88;;;;;;;;;;8346122;28;20608;-63
2022/11/27 13:22:11;;;;;;;10.98;7.95;;;;;;;;;;8349005;28;20016;-63
2022/11/27 13:26:14;;;;;;;9.00;6.72;;;;;;;;;;8346224;28;20020;-63
2022/11/27 13:30:19;;;;;;;9.17;6.73;;;;;;;;;;8350630;28;20028;-64
2022/11/27 13:34:21;;;;;;;11.52;7.00;;;;;;;;;;8351416;28;20238;-63
2022/11/27 13:38:23;;;;;;;10.02;6.57;;;;;;;;;;8350024;28;20052;-62
2022/11/27 13:42:24;;;;;;;10.13;6.28;;;;;;;;;;8350213;28;20685;-62
2022/11/27 13:46:26;;;;;;;10.07;6.45;;;;;;;;;;8348551;28;20072;-63
2022/11/27 13:50:27;;;;;;;9.35;6.30;;;;;;;;;;8350172;28;20028;-63
2022/11/27 13:54:27;;;;;;;7.70;6.20;;;;;;;;;;8351020;28;20400;-63
2022/11/27 13:58:29;;;;;;;13.55;7.82;;;;;;;;;;8350408;28;20108;-63
2022/11/27 14:02:40;;;;;;;9.90;7.32;;;;;;;;;;8352312;28;20467;-63
2022/11/27 14:06:41;;;;;;;8.60;6.80;;;;;;;;;;8350324;28;20025;-63
2022/11/27 14:10:47;;;;;;;13.32;7.78;;;;;;;;;;8349908;28;20032;-63
2022/11/27 14:15:03;;;;;;;12.80;8.32;;;;;;;;;;8351889;28;20576;-62
2022/11/27 14:19:05;;;;;;;11.77;7.43;;;;;;;;;;8350623;28;20052;-62
2022/11/27 14:23:08;;;;;;;10.63;6.15;;;;;;;;;;8355207;28;20020;-63
2022/11/27 14:27:21;;;;;;;8.77;6.88;;;;;;;;;;8354068;28;20029;-62
2022/11/27 14:31:26;;;;;;;14.77;9.85;;;;;;;;;;8355290;28;20119;-63
2022/11/27 14:35:27;;;;;;;17.27;12.77;;;;;;;;;;8357704;28;20017;-63
2022/11/27 14:39:32;;;;;;;9.73;6.85;;;;;;;;;;8357461;28;20288;-63
2022/11/27 14:43:32;;;;;;;;;;;;;;;;;;8355157;28;20020;-63
2022/11/27 14:47:32;;;;;;;12.52;6.80;;;;;;;;;;8356551;28;20046;-62
2022/11/27 14:51:34;;;;;;;12.40;8.02;;;;;;;;;;8354957;28;20458;-62
2022/11/27 14:55:34;;;;;;;10.55;7.03;;;;;;;;;;8355935;28;20024;-63
2022/11/27 14:59:34;;;;;;;9.43;6.80;;;;;;;;;;8355790;28;20366;-63
2022/11/27 15:03:35;;;;;;;7.18;5.57;;;;;;;;;;8356275;28;20720;-63
2022/11/27 15:07:36;;;;;;;7.05;5.20;;;;;;;;;;8357872;28;20017;-63
2022/11/27 15:11:36;;;;;;;9.15;5.55;;;;;;;;;;8357564;28;21029;-64
2022/11/27 15:15:38;;;;;;;8.30;5.22;;;;;;;;;;8356027;28;20032;-63
2022/11/27 15:19:40;;;;;;;7.47;5.40;;;;;;;;;;8355665;28;20482;-63
2022/11/27 15:23:45;;;;;;;8.32;6.20;;;;;;;;;;8355179;28;20624;-63
2022/11/27 15:27:45;;;;;;;7.07;4.95;;;;;;;;;;8353898;28;20686;-63
2022/11/27 15:31:52;;;;;;;8.10;5.10;;;;;;;;;;8352071;28;20334;-63
2022/11/27 15:35:53;;;;;;;8.18;5.25;;;;;;;;;;8353357;28;20473;-63
2022/11/27 15:39:54;;;;;;;7.95;5.53;;;;;;;;;;8349354;28;20056;-63
2022/11/27 15:43:55;;;;;;;9.43;6.30;;;;;;;;;;8344712;28;20100;-63
2022/11/27 15:47:56;;;;;;;7.13;5.18;;;;;;;;;;8315936;28;20064;-63
2022/11/27 15:51:57;;;;;;;6.60;5.00;;;;;;;;;;8301328;28;20025;-63
2022/11/27 15:55:57;;;;;;;9.38;5.65;;;;;;;;;;8302343;28;20025;-62
2022/11/27 15:59:57;;;;;;;10.63;6.38;;;;;;;;;;8302543;28;20017;-63
2022/11/27 16:03:57;;;;;;;8.10;5.53;;;;;;;;;;8349796;28;20056;-63
2022/11/27 16:07:58;;;;;;;8.38;5.93;;;;;;;;;;8350891;28;20031;-63
2022/11/27 16:11:58;;;;;;;12.80;7.63;;;;;;;;;;8347390;28;20016;-62
2022/11/27 16:16:05;;;;;;;8.90;7.22;;;;;;;;;;8351141;28;20071;-63
2022/11/27 16:20:06;;;;;;;18.55;9.73;;;;;;;;;;8347282;28;20060;-63
2022/11/27 16:24:07;;;;;;;28.77;14.13;;;;;;;;;;8333977;28;20013;-63
2022/11/27 16:28:07;;;;;;;35.03;16.00;;;;;;;;;;8350891;28;20036;-63
2022/11/27 16:32:07;;;;;;;26.03;13.27;;;;;;;;;;8353183;28;20485;-63
2022/11/27 16:36:12;;;;;;;26.83;12.13;;;;;;;;;;8351479;28;20277;-63
2022/11/27 16:40:13;;;;;;;17.90;10.00;;;;;;;;;;8353406;28;21293;-63
2022/11/27 16:44:14;;;;;;;18.83;10.80;;;;;;;;;;8347395;28;20452;-63
2022/11/27 16:48:14;;;;;;;21.80;12.70;;;;;;;;;;8352841;28;20036;-63
2022/11/27 16:52:15;;;;;;;18.77;10.27;;;;;;;;;;8351014;28;20133;-64
2022/11/27 16:56:17;;;;;;;17.50;9.90;;;;;;;;;;8351373;28;20269;-63
2022/11/27 17:00:17;;;;;;;19.52;9.98;;;;;;;;;;8352475;28;20021;-65
2022/11/27 17:04:18;;;;;;;26.05;11.65;;;;;;;;;;8352652;28;20040;-63
2022/11/27 17:08:18;;;;;;;22.25;10.57;;;;;;;;;;8356096;28;20056;-63
2022/11/27 17:12:19;;;;;;;28.37;12.17;;;;;;;;;;8353763;28;20039;-63
2022/11/27 17:16:19;;;;;;;24.42;9.70;;;;;;;;;;8350842;28;20279;-63
2022/11/27 17:20:19;;;;;;;14.40;7.75;;;;;;;;;;8352922;28;20024;-63
2022/11/27 17:24:20;;;;;;;12.48;7.00;;;;;;;;;;8352179;28;20013;-64
2022/11/27 17:28:20;;;;;;;13.15;7.38;;;;;;;;;;8343326;28;20058;-63
2022/11/27 17:32:20;;;;;;;7.85;5.47;;;;;;;;;;8341524;28;20043;-64
2022/11/27 17:36:20;;;;;;;12.45;7.38;;;;;;;;;;8344001;28;20447;-64
2022/11/27 17:40:21;;;;;;;12.73;7.63;;;;;;;;;;8342576;28;20028;-63
2022/11/27 17:44:21;;;;;;;9.20;5.75;;;;;;;;;;8345292;28;20233;-62
2022/11/27 17:48:21;;;;;;;15.30;9.30;;;;;;;;;;8341797;28;20063;-63
2022/11/27 17:52:22;;;;;;;11.00;6.03;;;;;;;;;;8346694;28;20293;-64
2022/11/27 17:56:22;;;;;;;9.60;6.67;;;;;;;;;;8349009;28;20099;-63
2022/11/27 18:00:22;;;;;;;7.82;5.40;;;;;;;;;;8347305;28;20305;-63
2022/11/27 18:04:23;;;;;;;9.73;5.88;;;;;;;;;;8350722;28;20571;-63
2022/11/27 18:08:23;;;;;;;7.97;5.20;;;;;;;;;;8352278;28;20552;-62
2022/11/27 18:12:23;;;;;;;10.87;7.20;;;;;;;;;;8349373;28;20024;-63
2022/11/27 18:16:27;;;;;;;12.82;7.80;;;;;;;;;;8348595;28;20303;-63
2022/11/27 18:20:28;;;;;;;13.30;8.45;;;;;;;;;;8349129;28;20135;-63
2022/11/27 18:24:28;;;;;;;15.90;9.50;;;;;;;;;;8349182;28;20939;-63
2022/11/27 18:28:28;;;;;;;35.08;18.38;;;;;;;;;;8341786;28;20139;-63
2022/11/27 18:32:28;;;;;;;16.73;10.17;;;;;;;;;;8343704;28;20456;-63
2022/11/27 18:36:29;;;;;;;17.25;10.02;;;;;;;;;;8343175;28;20703;-63
2022/11/27 18:40:34;;;;;;;11.90;8.20;;;;;;;;;;8346524;28;20024;-65
2022/11/27 18:44:35;;;;;;;11.50;7.03;;;;;;;;;;8344418;28;20029;-63
2022/11/27 18:48:35;;;;;;;11.10;7.28;;;;;;;;;;8337918;28;20033;-63
2022/11/27 18:52:36;;;;;;;12.18;7.60;;;;;;;;;;8342088;28;20028;-63
2022/11/27 18:56:36;;;;;;;14.90;7.32;;;;;;;;;;8342495;28;20032;-63
2022/11/27 19:00:37;;;;;;;18.70;9.95;;;;;;;;;;8338054;28;20048;-63
2022/11/27 19:04:38;;;;;;;21.48;13.73;;;;;;;;;;8336451;28;20546;-63
2022/11/27 19:08:39;;;;;;;16.60;10.30;;;;;;;;;;8339976;28;20270;-63
2022/11/27 19:12:39;;;;;;;21.30;11.10;;;;;;;;;;8339958;28;20027;-63
2022/11/27 19:16:44;;;;;;;22.15;8.88;;;;;;;;;;8340832;28;20500;-63
2022/11/27 19:20:46;;;;;;;30.55;12.27;;;;;;;;;;8340049;28;20344;-63
2022/11/27 19:24:46;;;;;;;18.52;8.98;;;;;;;;;;8340996;28;20660;-63
2022/11/27 19:28:47;;;;;;;13.65;8.02;;;;;;;;;;8342987;28;20021;-63
2022/11/27 19:32:48;;;;;;;17.27;10.75;;;;;;;;;;8340553;28;20044;-63
2022/11/27 19:36:48;;;;;;;16.05;9.63;;;;;;;;;;8341338;28;20025;-63
2022/11/27 19:40:48;;;;;;;15.43;9.10;;;;;;;;;;8329565;28;20024;-63
2022/11/27 19:44:49;;;;;;;14.95;7.95;;;;;;;;;;8341053;28;20846;-63
2022/11/27 19:48:54;;;;;;;12.50;8.15;;;;;;;;;;8338588;28;20041;-63
2022/11/27 19:52:54;;;;;;;11.43;8.07;;;;;;;;;;8343501;28;20036;-63
2022/11/27 19:56:54;;;;;;;9.10;6.85;;;;;;;;;;8333110;28;20058;-63
2022/11/27 20:01:03;;;;;;;10.83;7.70;;;;;;;;;;8349198;28;20072;-63
2022/11/27 20:05:03;;;;;;;13.05;7.97;;;;;;;;;;8340725;28;20270;-63
2022/11/27 20:09:04;;;;;;;10.43;7.28;;;;;;;;;;8340185;28;20592;-63
2022/11/27 20:13:04;;;;;;;9.18;6.50;;;;;;;;;;8339322;28;20071;-63
2022/11/27 20:17:04;;;;;;;9.07;6.82;;;;;;;;;;8339235;28;20146;-63
2022/11/27 20:21:08;;;;;;;14.85;8.75;;;;;;;;;;8338623;28;20028;-63
2022/11/27 20:25:08;;;;;;;;;;;;;;;;;;8341431;28;20114;-63
2022/11/27 20:29:09;;;;;;;9.02;6.32;;;;;;;;;;8339262;28;20732;-63
2022/11/27 20:33:11;;;;;;;8.68;7.05;;;;;;;;;;8342218;28;20035;-63
2022/11/27 20:37:12;;;;;;;13.23;7.80;;;;;;;;;;8339069;28;20021;-63
2022/11/27 20:41:13;;;;;;;9.93;6.88;;;;;;;;;;8339016;28;20126;-63
2022/11/27 20:45:13;;;;;;;9.60;6.80;;;;;;;;;;8340069;28;20028;-63
2022/11/27 20:49:15;;;;;;;9.48;6.63;;;;;;;;;;8326191;28;20025;-63
2022/11/27 20:53:15;;;;;;;12.80;6.35;;;;;;;;;;8339899;28;20143;-63
2022/11/27 20:57:15;;;;;;;8.82;6.47;;;;;;;;;;8336303;28;20062;-63
2022/11/27 21:01:22;;;;;;;8.02;5.28;;;;;;;;;;8334477;28;20039;-63
2022/11/27 21:05:22;;;;;;;8.70;6.22;;;;;;;;;;8337085;28;20016;-63
2022/11/27 21:09:23;;;;;;;10.13;5.80;;;;;;;;;;8337678;28;20020;-62
2022/11/27 21:13:23;;;;;;;8.55;5.30;;;;;;;;;;8339163;28;20052;-63
2022/11/27 21:17:23;;;;;;;9.75;6.55;;;;;;;;;;8337091;28;20029;-63
2022/11/27 21:21:24;;;;;;;11.77;7.20;;;;;;;;;;8338197;28;20032;-63
2022/11/27 21:25:24;;;;;;;9.80;6.45;;;;;;;;;;8337279;28;20385;-63
2022/11/27 21:29:26;;;;;;;12.95;6.78;;;;;;;;;;8342385;28;20031;-63
2022/11/27 21:33:26;;;;;;;9.25;5.45;;;;;;;;;;8348539;28;20029;-63
2022/11/27 21:37:26;;;;;;;7.68;5.50;;;;;;;;;;8349177;28;20389;-63
2022/11/27 21:41:27;;;;;;;9.73;5.60;;;;;;;;;;8351530;28;20491;-63
2022/11/27 21:45:27;;;;;;;9.55;5.53;;;;;;;;;;8348756;28;20036;-63
2022/11/27 21:49:27;;;;;;;9.95;6.63;;;;;;;;;;8350586;28;20035;-63
2022/11/27 21:53:28;;;;;;;8.82;5.80;;;;;;;;;;8353064;28;20032;-63
2022/11/27 21:57:28;;;;;;;9.20;5.90;;;;;;;;;;8352692;28;20025;-63
2022/11/27 22:01:29;;;;;;;9.82;6.10;;;;;;;;;;8352619;28;20159;-63
2022/11/27 22:05:29;;;;;;;8.98;6.63;;;;;;;;;;8351218;28;20075;-62
2022/11/27 22:09:32;;;;;;;11.65;7.82;;;;;;;;;;8353180;28;20024;-62
2022/11/27 22:13:32;;;;;;;16.77;9.55;;;;;;;;;;8347095;28;20575;-63
2022/11/27 22:17:32;;;;;;;25.87;11.27;;;;;;;;;;8349624;28;20076;-62
2022/11/27 22:21:32;;;;;;;25.63;12.95;;;;;;;;;;8349070;28;20289;-63
2022/11/27 22:25:33;;;;;;;37.03;15.98;;;;;;;;;;8349835;28;20025;-63
2022/11/27 22:29:33;;;;;;;29.43;15.57;;;;;;;;;;8337519;28;20116;-63
2022/11/27 22:33:35;;;;;;;19.77;11.00;;;;;;;;;;8346836;28;20282;-62
2022/11/27 22:37:35;;;;;;;19.65;11.38;;;;;;;;;;8344638;28;20031;-63
2022/11/27 22:41:37;;;;;;;16.15;10.10;;;;;;;;;;8351453;28;20318;-63
2022/11/27 22:45:38;;;;;;;10.73;7.35;;;;;;;;;;8346264;28;20490;-63
2022/11/27 22:49:38;;;;;;;11.13;7.55;;;;;;;;;;8343537;28;20520;-62
2022/11/27 22:53:38;;;;;;;14.13;7.78;;;;;;;;;;8347652;28;20032;-63
2022/11/27 22:57:39;;;;;;;12.10;7.75;;;;;;;;;;8334299;28;20109;-63
2022/11/27 23:01:39;;;;;;;10.65;6.32;;;;;;;;;;8341620;28;20078;-63
2022/11/27 23:05:42;;;;;;;6.78;5.50;;;;;;;;;;8344064;28;20111;-63
2022/11/27 23:09:42;;;;;;;7.05;5.47;;;;;;;;;;8344209;28;20790;-63
2022/11/27 23:13:43;;;;;;;7.75;5.40;;;;;;;;;;8343486;28;20495;-63
2022/11/27 23:17:43;;;;;;;8.40;5.67;;;;;;;;;;8350399;28;20821;-63
2022/11/27 23:21:43;;;;;;;8.70;6.47;;;;;;;;;;8349169;28;20940;-63
2022/11/27 23:25:43;;;;;;;7.60;5.38;;;;;;;;;;8350659;28;20020;-63
2022/11/27 23:29:44;;;;;;;9.13;6.97;;;;;;;;;;8349550;28;20107;-63
2022/11/27 23:33:44;;;;;;;10.48;6.43;;;;;;;;;;8349365;28;20037;-62
2022/11/27 23:37:44;;;;;;;8.80;6.10;;;;;;;;;;8348426;28;20035;-63
2022/11/27 23:41:47;;;;;;;7.40;5.33;;;;;;;;;;8347618;28;20275;-63
2022/11/27 23:45:47;;;;;;;9.10;5.30;;;;;;;;;;8348919;28;20702;-63
2022/11/27 23:49:47;;;;;;;6.80;5.10;;;;;;;;;;8345992;28;20283;-63